Time;durP1;ratioP1;P1;durP2;ratioP2;P2;SDS_P1;SDS_P2;PMS_P1;PMS_P2;Temp;Humidity;BMP_temperature;BMP_pressure;BME280_temperature;BME280_humidity;BME280_pressure;Samples;Min_cycle;Max_cycle;Signal;HPM_P1;HPM_P2
2024/01/28 00:01:31;;;;;;;;;;;18.50;58.00;;;;;;7326897;19;9181;-69
2024/01/28 00:04:01;;;;;;;;;;;18.50;57.90;;;;;;7325425;19;9218;-70
2024/01/28 00:06:31;;;;;;;;;;;18.60;57.90;;;;;;7326849;19;9019;-70
2024/01/28 00:09:00;;;;;;;;;;;18.60;57.70;;;;;;7326376;19;9986;-70
2024/01/28 00:11:30;;;;;;;;;;;18.70;57.70;;;;;;7326834;19;9213;-69
2024/01/28 00:13:57;;;;;;;;;;;18.70;57.70;;;;;;7327728;19;9004;-69
2024/01/28 00:16:27;;;;;;;;;;;18.70;57.60;;;;;;7327767;19;9292;-70
2024/01/28 00:19:00;;;;;;;;;;;18.70;57.70;;;;;;7327058;19;9023;-70
2024/01/28 00:21:30;;;;;;;;;;;18.70;57.60;;;;;;7325466;19;9265;-70
2024/01/28 00:24:02;;;;;;;;;;;18.70;57.60;;;;;;7326043;19;9213;-70
2024/01/28 00:26:32;;;;;;;;;;;18.60;57.50;;;;;;7325313;19;9218;-69
2024/01/28 00:29:01;;;;;;;;;;;18.70;57.50;;;;;;7326145;19;9336;-69
2024/01/28 00:31:31;;;;;;;;;;;18.60;57.40;;;;;;7325327;19;10249;-69
2024/01/28 00:34:03;;;;;;;;;;;18.60;57.40;;;;;;7325505;19;9299;-70
2024/01/28 00:36:33;;;;;;;;;;;18.60;57.50;;;;;;7325254;19;9803;-70
2024/01/28 00:39:03;;;;;;;;;;;18.60;57.50;;;;;;7324435;19;9377;-70
2024/01/28 00:41:33;;;;;;;;;;;18.50;57.50;;;;;;7325556;19;9166;-69
2024/01/28 00:44:03;;;;;;;;;;;18.50;57.50;;;;;;7324222;19;9590;-70
2024/01/28 00:46:34;;;;;;;;;;;18.50;57.60;;;;;;7325432;19;9350;-69
2024/01/28 00:49:06;;;;;;;;;;;18.40;57.70;;;;;;7321858;19;9242;-70
2024/01/28 00:51:36;;;;;;;;;;;18.40;57.70;;;;;;7324915;19;9020;-69
2024/01/28 00:54:06;;;;;;;;;;;18.30;57.80;;;;;;7324401;19;9474;-70
2024/01/28 00:56:36;;;;;;;;;;;18.30;57.90;;;;;;7325068;19;9081;-70
2024/01/28 00:59:05;;;;;;;;;;;18.20;57.80;;;;;;7323739;19;9220;-70
2024/01/28 01:01:35;;;;;;;;;;;18.20;57.90;;;;;;7324639;19;9223;-70
2024/01/28 01:04:07;;;;;;;;;;;18.20;58.60;;;;;;7323451;19;9279;-70
2024/01/28 01:06:37;;;;;;;;;;;18.10;58.00;;;;;;7324204;19;9274;-70
2024/01/28 01:09:07;;;;;;;;;;;18.10;58.10;;;;;;7325078;19;9099;-70
2024/01/28 01:11:37;;;;;;;;;;;18.00;58.10;;;;;;7324108;19;9245;-70
2024/01/28 01:14:07;;;;;;;;;;;18.00;58.30;;;;;;7324396;19;9266;-70
2024/01/28 01:16:36;;;;;;;;;;;17.90;58.30;;;;;;7322316;19;9322;-70
2024/01/28 01:19:09;;;;;;;;;;;17.90;58.40;;;;;;7324579;19;9511;-70
2024/01/28 01:21:38;;;;;;;;;;;17.90;58.40;;;;;;7323614;19;9019;-69
2024/01/28 01:24:08;;;;;;;;;;;17.80;58.40;;;;;;7322885;19;9597;-69
2024/01/28 01:26:38;;;;;;;;;;;17.80;58.40;;;;;;7321914;19;9201;-69
2024/01/28 01:29:08;;;;;;;;;;;17.80;58.50;;;;;;7324202;19;9027;-70
2024/01/28 01:31:37;;;;;;;;;;;17.80;58.60;;;;;;7321847;19;9069;-70
2024/01/28 01:34:10;;;;;;;;;;;17.80;58.70;;;;;;7323641;19;9221;-70
2024/01/28 01:36:40;;;;;;;;;;;17.80;58.50;;;;;;7323334;19;10391;-70
2024/01/28 01:39:09;;;;;;;;;;;17.80;58.50;;;;;;7323621;19;9190;-70
2024/01/28 01:41:39;;;;;;;;;;;17.80;58.30;;;;;;7323095;19;9217;-70
2024/01/28 01:44:09;;;;;;;;;;;17.90;59.00;;;;;;7321672;19;9272;-70
2024/01/28 01:46:39;;;;;;;;;;;17.90;58.20;;;;;;7322802;19;9230;-70
2024/01/28 01:49:13;;;;;;;;;;;17.90;58.20;;;;;;7323532;19;9029;-70
2024/01/28 01:51:44;;;;;;;;;;;17.90;58.10;;;;;;7321555;19;9273;-70
2024/01/28 01:54:13;;;;;;;;;;;18.00;58.10;;;;;;7322451;19;9312;-69
2024/01/28 01:56:42;;;;;;;;;;;18.00;58.20;;;;;;7322494;19;9944;-69
2024/01/28 01:59:12;;;;;;;;;;;18.10;58.10;;;;;;7323107;19;9205;-70
2024/01/28 02:01:41;;;;;;;;;;;18.10;58.00;;;;;;7327311;19;9024;-70
2024/01/28 02:04:13;;;;;;;;;;;18.20;58.00;;;;;;7327707;19;9056;-69
2024/01/28 02:06:42;;;;;;;;;;;18.20;57.90;;;;;;7330242;19;9226;-70
2024/01/28 02:09:11;;;;;;;;;;;18.30;57.90;;;;;;7328713;19;9233;-70
2024/01/28 02:11:40;;;;;;;;;;;18.30;57.80;;;;;;7329568;19;9215;-69
2024/01/28 02:14:10;;;;;;;;;;;18.40;57.70;;;;;;7327569;19;9035;-70
2024/01/28 02:16:39;;;;;;;;;;;18.50;57.70;;;;;;7328266;19;9259;-70
2024/01/28 02:19:08;;;;;;;;;;;18.50;57.60;;;;;;7329321;19;9731;-69
2024/01/28 02:21:39;;;;;;;;;;;18.60;57.60;;;;;;7328864;19;9158;-70
2024/01/28 02:24:13;;;;;;;;;;;18.60;57.40;;;;;;7328787;19;9288;-70
2024/01/28 02:26:42;;;;;;;;;;;18.60;57.30;;;;;;7328344;19;9200;-70
2024/01/28 02:29:11;;;;;;;;;;;18.70;57.40;;;;;;7328428;19;9954;-70
2024/01/28 02:31:40;;;;;;;;;;;18.70;57.30;;;;;;7329724;19;10051;-70
2024/01/28 02:34:09;;;;;;;;;;;18.70;57.30;;;;;;7330933;19;9797;-69
2024/01/28 02:36:38;;;;;;;;;;;18.70;57.20;;;;;;7330751;19;9263;-70
2024/01/28 02:39:07;;;;;;;;;;;18.60;57.10;;;;;;7329255;19;9188;-70
2024/01/28 02:41:40;;;;;;;;;;;18.60;57.90;;;;;;7328500;19;9556;-70
2024/01/28 02:44:09;;;;;;;;;;;18.60;57.10;;;;;;7327482;19;9019;-69
2024/01/28 02:46:38;;;;;;;;;;;18.60;57.10;;;;;;7328786;19;9213;-69
2024/01/28 02:49:07;;;;;;;;;;;18.60;57.10;;;;;;7327876;19;11422;-70
2024/01/28 02:51:36;;;;;;;;;;;18.60;57.10;;;;;;7328938;19;9178;-70
2024/01/28 02:54:06;;;;;;;;;;;18.50;57.10;;;;;;7327856;19;9262;-71
2024/01/28 02:56:39;;;;;;;;;;;18.50;57.10;;;;;;7327931;19;10076;-70
2024/01/28 02:59:09;;;;;;;;;;;18.40;57.10;;;;;;7327566;19;9249;-70
2024/01/28 03:01:47;;;;;;;;;;;18.40;57.20;;;;;;7328115;19;9216;-70
2024/01/28 03:04:17;;;;;;;;;;;18.30;57.20;;;;;;7327611;19;9312;-70
2024/01/28 03:06:46;;;;;;;;;;;18.30;57.40;;;;;;7327492;19;9259;-70
2024/01/28 03:09:18;;;;;;;;;;;18.30;57.40;;;;;;7327272;19;9245;-70
2024/01/28 03:11:50;;;;;;;;;;;18.20;57.50;;;;;;7327650;19;9531;-70
2024/01/28 03:14:20;;;;;;;;;;;18.10;57.50;;;;;;7324929;19;9250;-70
2024/01/28 03:16:51;;;;;;;;;;;18.10;57.50;;;;;;7326251;19;9238;-70
2024/01/28 03:19:20;;;;;;;;;;;18.10;57.60;;;;;;7327447;19;9278;-70
2024/01/28 03:21:50;;;;;;;;;;;18.00;57.60;;;;;;7326665;19;10059;-70
2024/01/28 03:24:20;;;;;;;;;;;18.00;57.70;;;;;;7327561;19;9734;-70
2024/01/28 03:26:52;;;;;;;;;;;18.00;57.90;;;;;;7326880;19;9015;-70
2024/01/28 03:29:28;;;;;;;;;;;17.90;57.90;;;;;;7327268;19;9015;-70
2024/01/28 03:31:57;;;;;;;;;;;17.90;57.90;;;;;;7327569;19;9564;-70
2024/01/28 03:34:27;;;;;;;;;;;17.80;57.80;;;;;;7326534;19;9197;-70
2024/01/28 03:36:57;;;;;;;;;;;17.80;57.90;;;;;;7327026;19;9230;-70
2024/01/28 03:39:27;;;;;;;;;;;17.80;58.00;;;;;;7325800;19;8948;-70
2024/01/28 03:41:59;;;;;;;;;;;17.80;58.10;;;;;;7326672;19;9531;-70
2024/01/28 03:44:29;;;;;;;;;;;17.80;58.10;;;;;;7326289;19;9987;-70
2024/01/28 03:46:59;;;;;;;;;;;17.80;58.10;;;;;;7327371;19;8944;-70
2024/01/28 03:49:30;;;;;;;;;;;17.80;57.90;;;;;;7326643;19;9196;-70
2024/01/28 03:52:00;;;;;;;;;;;17.90;57.80;;;;;;7327245;19;9228;-70
2024/01/28 03:54:29;;;;;;;;;;;17.90;57.80;;;;;;7324651;19;9207;-70
2024/01/28 03:57:02;;;;;;;;;;;17.90;57.80;;;;;;7326769;19;10108;-70
2024/01/28 03:59:32;;;;;;;;;;;17.90;57.70;;;;;;7326345;19;9193;-70
2024/01/28 04:02:02;;;;;;;;;;;17.90;57.70;;;;;;7326484;19;9504;-70
2024/01/28 04:04:32;;;;;;;;;;;18.00;57.70;;;;;;7326759;19;9303;-70
2024/01/28 04:07:02;;;;;;;;;;;18.00;57.70;;;;;;7326521;19;9257;-70
2024/01/28 04:09:32;;;;;;;;;;;18.10;57.80;;;;;;7326127;19;10092;-70
2024/01/28 04:12:05;;;;;;;;;;;18.10;57.50;;;;;;7326111;19;9268;-70
2024/01/28 04:14:35;;;;;;;;;;;18.20;57.60;;;;;;7325319;19;9357;-70
2024/01/28 04:17:05;;;;;;;;;;;18.30;57.50;;;;;;7324072;19;9221;-70
2024/01/28 04:19:34;;;;;;;;;;;18.30;57.40;;;;;;7326299;19;8964;-70
2024/01/28 04:22:04;;;;;;;;;;;18.40;57.40;;;;;;7325774;19;9237;-70
2024/01/28 04:24:34;;;;;;;;;;;18.40;57.40;;;;;;7325690;19;9201;-70
2024/01/28 04:27:07;;;;;;;;;;;18.50;57.20;;;;;;7325826;19;9174;-70
2024/01/28 04:29:36;;;;;;;;;;;18.60;57.10;;;;;;7325565;19;9169;-71
2024/01/28 04:32:07;;;;;;;;;;;18.60;57.10;;;;;;7325623;19;9203;-71
2024/01/28 04:34:37;;;;;;;;;;;18.70;57.10;;;;;;7325248;19;9282;-70
2024/01/28 04:37:07;;;;;;;;;;;18.70;57.00;;;;;;7325914;19;10054;-70
2024/01/28 04:39:37;;;;;;;;;;;18.70;56.90;;;;;;7324187;19;9218;-70
2024/01/28 04:42:10;;;;;;;;;;;18.70;56.90;;;;;;7326034;19;9292;-70
2024/01/28 04:44:39;;;;;;;;;;;18.70;57.70;;;;;;7325327;19;9173;-70
2024/01/28 04:47:09;;;;;;;;;;;18.70;56.90;;;;;;7324601;19;9170;-70
2024/01/28 04:49:39;;;;;;;;;;;18.70;56.90;;;;;;7325360;19;8944;-70
2024/01/28 04:52:09;;;;;;;;;;;18.60;56.90;;;;;;7326814;19;9110;-70
2024/01/28 04:54:38;;;;;;;;;;;18.60;56.80;;;;;;7328170;19;9149;-70
2024/01/28 04:57:12;;;;;;;;;;;18.60;56.80;;;;;;7326300;19;9189;-70
2024/01/28 04:59:41;;;;;;;;;;;18.60;56.70;;;;;;7323808;19;9011;-71
2024/01/28 05:02:11;;;;;;;;;;;18.60;56.70;;;;;;7324248;19;9440;-70
2024/01/28 05:04:41;;;;;;;;;;;18.50;56.70;;;;;;7323473;19;9229;-70
2024/01/28 05:07:12;;;;;;;;;;;18.50;56.80;;;;;;7322592;19;9614;-70
2024/01/28 05:09:41;;;;;;;;;;;18.40;56.80;;;;;;7323866;19;9221;-70
2024/01/28 05:12:13;;;;;;;;;;;18.40;56.90;;;;;;7324227;19;10040;-70
2024/01/28 05:14:43;;;;;;;;;;;18.30;56.90;;;;;;7324556;19;9107;-70
2024/01/28 05:17:13;;;;;;;;;;;18.30;56.90;;;;;;7324320;19;9116;-70
2024/01/28 05:19:42;;;;;;;;;;;18.30;57.00;;;;;;7323900;19;9296;-69
2024/01/28 05:22:11;;;;;;;;;;;18.20;57.00;;;;;;7322742;19;9233;-70
2024/01/28 05:24:40;;;;;;;;;;;18.20;57.10;;;;;;7324801;19;9206;-70
2024/01/28 05:27:09;;;;;;;;;;;18.10;57.10;;;;;;7323907;19;9979;-70
2024/01/28 05:29:40;;;;;;;;;;;18.10;57.10;;;;;;7323463;19;9515;-70
2024/01/28 05:32:11;;;;;;;;;;;18.00;57.20;;;;;;7324443;19;9239;-70
2024/01/28 05:34:40;;;;;;;;;;;18.00;57.30;;;;;;7323155;19;9269;-70
2024/01/28 05:37:09;;;;;;;;;;;17.90;57.30;;;;;;7328909;19;9111;-70
2024/01/28 05:39:38;;;;;;;;;;;17.90;57.30;;;;;;7328956;19;9158;-70
2024/01/28 05:42:07;;;;;;;;;;;17.80;57.40;;;;;;7330799;19;9179;-70
2024/01/28 05:44:36;;;;;;;;;;;17.80;57.60;;;;;;7329722;19;9141;-70
2024/01/28 05:47:08;;;;;;;;;;;17.80;57.70;;;;;;7330599;19;9230;-70
2024/01/28 05:49:37;;;;;;;;;;;17.80;57.70;;;;;;7329483;19;9257;-70
2024/01/28 05:52:07;;;;;;;;;;;17.80;57.80;;;;;;7329119;19;9237;-70
2024/01/28 05:54:41;;;;;;;;;;;17.80;57.70;;;;;;7329176;19;9166;-70
2024/01/28 05:57:10;;;;;;;;;;;17.80;57.50;;;;;;7328326;19;9284;-70
2024/01/28 05:59:39;;;;;;;;;;;17.80;57.50;;;;;;7329373;19;9368;-70
2024/01/28 06:02:11;;;;;;;;;;;17.80;57.40;;;;;;7329404;19;9326;-70
2024/01/28 06:04:40;;;;;;;;;;;17.90;57.50;;;;;;7329738;19;9308;-70
2024/01/28 06:07:09;;;;;;;;;;;17.90;57.40;;;;;;7328960;19;9251;-70
2024/01/28 06:09:39;;;;;;;;;;;17.90;57.40;;;;;;7329416;19;9229;-71
2024/01/28 06:12:09;;;;;;;;;;;17.90;57.30;;;;;;7328977;19;9560;-70
2024/01/28 06:14:38;;;;;;;;;;;18.00;57.40;;;;;;7328844;19;9487;-71
2024/01/28 06:17:11;;;;;;;;;;;18.00;57.40;;;;;;7328648;19;8953;-70
2024/01/28 06:19:41;;;;;;;;;;;18.10;57.30;;;;;;7329237;19;9204;-70
2024/01/28 06:22:10;;;;;;;;;;;18.20;57.20;;;;;;7329079;19;9205;-70
2024/01/28 06:24:42;;;;;;;;;;;18.20;57.10;;;;;;7329116;19;9612;-70
2024/01/28 06:27:12;;;;;;;;;;;18.30;57.10;;;;;;7330089;19;9174;-70
2024/01/28 06:29:44;;;;;;;;;;;18.30;57.00;;;;;;7328057;19;9224;-70
2024/01/28 06:32:17;;;;;;;;;;;18.40;57.10;;;;;;7330058;19;9217;-70
2024/01/28 06:34:47;;;;;;;;;;;18.40;56.90;;;;;;7327912;19;9176;-70
2024/01/28 06:37:17;;;;;;;;;;;18.50;56.90;;;;;;7329141;19;9963;-70
2024/01/28 06:39:51;;;;;;;;;;;18.60;56.90;;;;;;7328254;19;9019;-70
2024/01/28 06:42:21;;;;;;;;;;;18.60;56.70;;;;;;7329310;19;9242;-69
2024/01/28 06:44:51;;;;;;;;;;;18.60;56.70;;;;;;7328486;19;9291;-70
2024/01/28 06:47:24;;;;;;;;;;;18.60;56.60;;;;;;7325948;19;9235;-70
2024/01/28 06:49:53;;;;;;;;;;;18.70;56.60;;;;;;7326880;19;9178;-70
2024/01/28 06:52:23;;;;;;;;;;;18.70;56.70;;;;;;7328162;19;9304;-70
2024/01/28 06:54:53;;;;;;;;;;;18.70;56.60;;;;;;7328386;19;9212;-70
2024/01/28 06:57:23;;;;;;;;;;;18.60;56.50;;;;;;7327254;19;9132;-70
2024/01/28 06:59:52;;;;;;;;;;;18.60;56.50;;;;;;7328789;19;9186;-71
2024/01/28 07:02:26;;;;;;;;;;;18.60;56.50;;;;;;7327378;19;9703;-70
2024/01/28 07:04:55;;;;;;;;;;;18.60;56.40;;;;;;7327292;19;9186;-70
2024/01/28 07:07:25;;;;;;;;;;;18.60;56.40;;;;;;7328191;19;9308;-70
2024/01/28 07:09:55;;;;;;;;;;;18.50;56.30;;;;;;7331795;19;9255;-70
2024/01/28 07:12:25;;;;;;;;;;;18.50;57.00;;;;;;7332290;19;9016;-70
2024/01/28 07:14:54;;;;;;;;;;;18.40;56.20;;;;;;7330295;19;9300;-70
2024/01/28 07:17:27;;;;;;;;;;;18.40;56.30;;;;;;7327780;19;9218;-70
2024/01/28 07:19:57;;;;;;;;;;;18.40;56.40;;;;;;7326935;19;9348;-70
2024/01/28 07:22:27;;;;;;;;;;;18.30;56.50;;;;;;7327604;19;10285;-70
2024/01/28 07:24:56;;;;;;;;;;;18.30;56.50;;;;;;7326454;19;9142;-70
2024/01/28 07:27:26;;;;;;;;;;;18.20;56.50;;;;;;7327704;19;9988;-70
2024/01/28 07:29:56;;;;;;;;;;;18.20;56.70;;;;;;7325746;19;9174;-70
2024/01/28 07:32:27;;;;;;;;;;;18.10;56.70;;;;;;7327435;19;9328;-70
2024/01/28 07:34:56;;;;;;;;;;;18.10;56.80;;;;;;7326404;19;9269;-70
2024/01/28 07:37:25;;;;;;;;;;;18.00;56.70;;;;;;7327082;19;9348;-70
2024/01/28 07:39:55;;;;;;;;;;;18.00;56.80;;;;;;7326849;19;9167;-70
2024/01/28 07:42:24;;;;;;;;;;;17.90;56.90;;;;;;7327014;19;9170;-70
2024/01/28 07:44:53;;;;;;;;;;;17.90;57.10;;;;;;7326780;19;10004;-70
2024/01/28 07:47:22;;;;;;;;;;;17.80;57.00;;;;;;7326320;19;9490;-70
2024/01/28 07:49:53;;;;;;;;;;;17.80;57.20;;;;;;7326922;19;9214;-70
2024/01/28 07:52:22;;;;;;;;;;;17.80;57.30;;;;;;7326365;19;9138;-70
2024/01/28 07:54:51;;;;;;;;;;;17.70;57.30;;;;;;7326370;19;9250;-70
2024/01/28 07:57:20;;;;;;;;;;;17.80;57.30;;;;;;7326026;19;10000;-70
2024/01/28 07:59:49;;;;;;;;;;;17.80;57.30;;;;;;7325683;19;9370;-71
2024/01/28 08:02:18;;;;;;;;;;;17.80;57.20;;;;;;7324886;19;9224;-71
2024/01/28 08:04:49;;;;;;;;;;;17.80;57.10;;;;;;7326660;19;9209;-70
2024/01/28 08:07:21;;;;;;;;;;;17.90;57.10;;;;;;7325468;19;9218;-71
2024/01/28 08:09:49;;;;;;;;;;;17.90;57.00;;;;;;7326461;19;9239;-70
2024/01/28 08:12:18;;;;;;;;;;;17.90;57.00;;;;;;7324921;19;9226;-70
2024/01/28 08:14:47;;;;;;;;;;;17.90;56.90;;;;;;7325576;19;9266;-70
2024/01/28 08:17:17;;;;;;;;;;;17.90;56.90;;;;;;7325259;19;9478;-71
2024/01/28 08:19:46;;;;;;;;;;;17.90;56.90;;;;;;7325636;19;10066;-70
2024/01/28 08:22:15;;;;;;;;;;;18.00;57.00;;;;;;7326063;19;9015;-70
2024/01/28 08:24:46;;;;;;;;;;;18.00;57.00;;;;;;7325599;19;9200;-70
2024/01/28 08:27:15;;;;;;;;;;;18.10;57.00;;;;;;7326133;19;9239;-70
2024/01/28 08:29:46;;;;;;;;;;;18.20;56.80;;;;;;7325200;19;9209;-70
2024/01/28 08:32:16;;;;;;;;;;;18.20;56.80;;;;;;7325543;19;9721;-70
2024/01/28 08:34:48;;;;;;;;;;;18.30;56.80;;;;;;7325453;19;9251;-70
2024/01/28 08:37:21;;;;;;;;;;;18.30;56.80;;;;;;7325773;19;9190;-70
2024/01/28 08:39:53;;;;;;;;;;;18.40;56.70;;;;;;7325277;19;9500;-70
2024/01/28 08:42:24;;;;;;;;;;;18.50;56.60;;;;;;7325195;19;9174;-70
2024/01/28 08:44:54;;;;;;;;;;;18.50;56.60;;;;;;7325031;19;9567;-70
2024/01/28 08:47:24;;;;;;;;;;;18.60;56.50;;;;;;7326057;19;9519;-70
2024/01/28 08:49:54;;;;;;;;;;;18.60;56.50;;;;;;7325426;19;10116;-70
2024/01/28 08:52:25;;;;;;;;;;;18.60;56.50;;;;;;7324577;19;9146;-70
2024/01/28 08:54:58;;;;;;;;;;;18.70;57.10;;;;;;7325039;19;9540;-70
2024/01/28 08:57:27;;;;;;;;;;;18.70;56.40;;;;;;7324188;19;9174;-70
2024/01/28 08:59:57;;;;;;;;;;;18.70;56.30;;;;;;7324789;19;9255;-71
2024/01/28 09:02:27;;;;;;;;;;;18.70;56.40;;;;;;7323463;19;9222;-69
2024/01/28 09:04:57;;;;;;;;;;;18.60;56.30;;;;;;7324648;19;8948;-69
2024/01/28 09:07:27;;;;;;;;;;;18.60;56.30;;;;;;7323879;19;9535;-69
2024/01/28 09:10:00;;;;;;;;;;;18.60;56.40;;;;;;7323705;19;9248;-69
2024/01/28 09:12:29;;;;;;;;;;;18.60;56.20;;;;;;7323573;19;9209;-70
2024/01/28 09:14:59;;;;;;;;;;;18.60;56.30;;;;;;7321819;19;9244;-70
2024/01/28 09:17:29;;;;;;;;;;;18.60;56.20;;;;;;7324039;19;9484;-69
2024/01/28 09:19:59;;;;;;;;;;;18.60;56.10;;;;;;7322926;19;9507;-69
2024/01/28 09:22:28;;;;;;;;;;;18.50;56.20;;;;;;7324309;19;9316;-69
2024/01/28 09:25:01;;;;;;;;;;;18.50;56.20;;;;;;7323471;19;9341;-69
2024/01/28 09:27:31;;;;;;;;;;;18.40;56.20;;;;;;7324546;19;9976;-69
2024/01/28 09:30:00;;;;;;;;;;;18.40;56.40;;;;;;7325557;19;9047;-69
2024/01/28 09:32:30;;;;;;;;;;;18.40;56.40;;;;;;7325250;19;9222;-71
2024/01/28 09:35:00;;;;;;;;;;;18.30;56.40;;;;;;7323355;19;9362;-70
2024/01/28 09:37:30;;;;;;;;;;;18.30;56.40;;;;;;7322789;19;9312;-70
2024/01/28 09:40:04;;;;;;;;;;;18.30;56.50;;;;;;7323312;19;9214;-70
2024/01/28 09:42:43;;;;;;;;;;;18.20;56.60;;;;;;7322751;19;9174;-70
2024/01/28 09:45:14;;;;;;;;;;;18.20;56.70;;;;;;7323653;19;8948;-69
2024/01/28 09:47:44;;;;;;;;;;;18.20;56.80;;;;;;7322836;19;10401;-69
2024/01/28 09:50:17;;;;;;;;;;;18.10;56.80;;;;;;7321766;19;9269;-69
2024/01/28 09:52:47;;;;;;;;;;;18.10;57.10;;;;;;7322328;19;9358;-69
2024/01/28 09:55:19;;;;;;;;;;;18.10;57.10;;;;;;7323521;19;10057;-69
2024/01/28 09:57:49;;;;;;;;;;;18.00;57.20;;;;;;7321559;19;9343;-69
2024/01/28 10:00:22;;;;;;;;;;;18.00;57.20;;;;;;7322358;19;9214;-69
2024/01/28 10:02:51;;;;;;;;;;;18.00;57.20;;;;;;7322207;19;9027;-69
2024/01/28 10:05:21;;;;;;;;;;;18.00;57.20;;;;;;7322012;19;9255;-69
2024/01/28 10:08:02;;;;;;;;;;;18.00;57.30;;;;;;7322378;19;9441;-69
2024/01/28 10:10:36;;;;;;;;;;;18.00;57.20;;;;;;7321826;19;9971;-69
2024/01/28 10:13:06;;;;;;;;;;;18.00;57.20;;;;;;7321914;19;9178;-69
2024/01/28 10:15:36;;;;;;;;;;;18.00;57.10;;;;;;7321211;19;9271;-69
2024/01/28 10:18:06;;;;;;;;;;;18.00;57.20;;;;;;7322066;19;9017;-69
2024/01/28 10:20:36;;;;;;;;;;;18.10;57.20;;;;;;7321974;19;9235;-69
2024/01/28 10:23:06;;;;;;;;;;;18.20;57.20;;;;;;7326418;19;10060;-69
2024/01/28 10:25:39;;;;;;;;;;;18.20;57.10;;;;;;7328868;19;10091;-69
2024/01/28 10:28:09;;;;;;;;;;;18.30;57.20;;;;;;7326942;19;9291;-68
2024/01/28 10:30:39;;;;;;;;;;;18.40;57.00;;;;;;7328423;19;10482;-69
2024/01/28 10:33:10;;;;;;;;;;;18.50;57.00;;;;;;7327935;19;9380;-69
2024/01/28 10:35:40;;;;;;;;;;;18.50;56.90;;;;;;7326516;19;8944;-69
2024/01/28 10:38:18;;;;;;;;;;;18.60;56.80;;;;;;7327994;19;9976;-69
2024/01/28 10:40:51;;;;;;;;;;;18.60;56.70;;;;;;7327319;19;9445;-69
2024/01/28 10:43:29;;;;;;;;;;;18.70;56.70;;;;;;7328491;19;9216;-68
2024/01/28 10:46:00;;;;;;;;;;;18.70;56.60;;;;;;7327377;19;9285;-69
2024/01/28 10:48:32;;;;;;;;;;;18.80;56.60;;;;;;7328100;19;9206;-68
2024/01/28 10:51:02;;;;;;;;;;;18.80;56.50;;;;;;7327827;19;9278;-69
2024/01/28 10:53:33;;;;;;;;;;;18.80;56.50;;;;;;7327979;19;9193;-68
2024/01/28 10:56:06;;;;;;;;;;;18.80;56.50;;;;;;7327497;19;9289;-70
2024/01/28 10:58:36;;;;;;;;;;;18.80;56.50;;;;;;7328248;19;9989;-69
2024/01/28 11:01:07;;;;;;;;;;;18.80;56.50;;;;;;7327854;19;9183;-68
2024/01/28 11:03:37;;;;;;;;;;;18.80;56.50;;;;;;7327639;19;9469;-69
2024/01/28 11:06:06;;;;;;;;;;;18.80;56.50;;;;;;7327757;19;9186;-69
2024/01/28 11:08:36;;;;;;;;;;;18.80;56.50;;;;;;7327145;19;9168;-69
2024/01/28 11:11:07;;;;;;;;;;;18.80;56.50;;;;;;7327300;19;9096;-68
2024/01/28 11:13:36;;;;;;;;;;;18.80;56.50;;;;;;7326886;19;9203;-69
2024/01/28 11:16:09;;;;;;;;;;;18.70;56.60;;;;;;7327222;19;9289;-69
2024/01/28 11:18:38;;;;;;;;;;;18.70;56.60;;;;;;7325982;19;9585;-69
2024/01/28 11:21:14;;;;;;;;;;;18.70;56.60;;;;;;7327702;19;9424;-69
2024/01/28 11:23:47;;;;;;;;;;;18.70;56.70;;;;;;7326786;19;9243;-69
2024/01/28 11:26:22;;;;;;;;;;;18.70;56.70;;;;;;7327337;19;9003;-69
2024/01/28 11:28:55;;;;;;;;;;;18.70;56.70;;;;;;7327801;19;9569;-69
2024/01/28 11:31:32;;;;;;;;;;;18.70;56.80;;;;;;7326040;19;9372;-68
2024/01/28 11:34:15;;;;;;;;;;;18.70;56.80;;;;;;7325593;19;9174;-68
2024/01/28 11:36:47;;;;;;;;;;;18.70;56.90;;;;;;7326239;19;9332;-68
2024/01/28 11:39:18;;;;;;;;;;;18.70;56.90;;;;;;7324552;19;9273;-68
2024/01/28 11:41:55;;;;;;;;;;;18.70;57.00;;;;;;7327510;19;10024;-68
2024/01/28 11:44:25;;;;;;;;;;;18.60;56.90;;;;;;7326871;19;9154;-69
2024/01/28 11:46:55;;;;;;;;;;;18.60;57.10;;;;;;7329055;19;9162;-69
2024/01/28 11:49:25;;;;;;;;;;;18.60;57.10;;;;;;7327187;19;9214;-69
2024/01/28 11:51:55;;;;;;;;;;;18.60;57.10;;;;;;7326529;19;9228;-69
2024/01/28 11:54:25;;;;;;;;;;;18.60;57.20;;;;;;7325690;19;9243;-69
2024/01/28 11:57:00;;;;;;;;;;;18.60;57.30;;;;;;7326427;19;10755;-69
2024/01/28 11:59:33;;;;;;;;;;;18.60;57.30;;;;;;7326360;19;9345;-68
2024/01/28 12:02:03;;;;;;;;;;;18.60;57.40;;;;;;7325793;19;9142;-68
2024/01/28 12:04:34;;;;;;;;;;;18.60;57.40;;;;;;7326302;19;9248;-69
2024/01/28 12:07:04;;;;;;;;;;;18.60;57.50;;;;;;7325150;19;9240;-68
2024/01/28 12:09:35;;;;;;;;;;;18.50;57.50;;;;;;7325165;19;9237;-68
2024/01/28 12:12:09;;;;;;;;;;;18.60;57.50;;;;;;7325327;19;9396;-68
2024/01/28 12:14:40;;;;;;;;;;;18.60;57.60;;;;;;7325720;19;9217;-68
2024/01/28 12:17:10;;;;;;;;;;;18.60;57.60;;;;;;7324901;19;9202;-68
2024/01/28 12:19:41;;;;;;;;;;;18.60;57.60;;;;;;7325746;19;9577;-68
2024/01/28 12:22:13;;;;;;;;;;;18.60;57.70;;;;;;7325349;19;9447;-68
2024/01/28 12:24:48;;;;;;;;;;;18.60;57.70;;;;;;7325194;19;9011;-69
2024/01/28 12:27:20;;;;;;;;;;;18.60;57.70;;;;;;7323361;19;9302;-69
2024/01/28 12:29:50;;;;;;;;;;;18.60;57.70;;;;;;7324812;19;9024;-68
2024/01/28 12:32:20;;;;;;;;;;;18.60;57.70;;;;;;7325472;19;9219;-69
2024/01/28 12:34:49;;;;;;;;;;;18.60;57.70;;;;;;7325221;19;9424;-69
2024/01/28 12:37:19;;;;;;;;;;;18.60;57.70;;;;;;7324744;19;9174;-68
2024/01/28 12:39:49;;;;;;;;;;;18.60;57.70;;;;;;7325370;19;9376;-68
2024/01/28 12:42:21;;;;;;;;;;;18.60;57.60;;;;;;7325491;19;9028;-68
2024/01/28 12:44:51;;;;;;;;;;;18.60;57.60;;;;;;7323679;19;9016;-68
2024/01/28 12:47:21;;;;;;;;;;;18.70;57.70;;;;;;7322605;19;8972;-69
2024/01/28 12:49:50;;;;;;;;;;;18.70;57.60;;;;;;7325835;19;9281;-69
2024/01/28 12:52:19;;;;;;;;;;;18.70;57.60;;;;;;7323830;19;9016;-68
2024/01/28 12:54:48;;;;;;;;;;;18.70;57.70;;;;;;7325362;19;9011;-69
2024/01/28 12:57:17;;;;;;;;;;;18.70;57.60;;;;;;7324751;19;9758;-68
2024/01/28 12:59:49;;;;;;;;;;;18.70;57.70;;;;;;7325089;19;9007;-69
2024/01/28 13:02:18;;;;;;;;;;;18.70;57.60;;;;;;7324320;19;9845;-68
2024/01/28 13:04:47;;;;;;;;;;;18.70;57.60;;;;;;7323149;19;9241;-69
2024/01/28 13:07:16;;;;;;;;;;;18.70;57.70;;;;;;7323554;19;9956;-68
2024/01/28 13:09:46;;;;;;;;;;;18.70;57.60;;;;;;7324587;19;9158;-68
2024/01/28 13:12:16;;;;;;;;;;;18.70;58.30;;;;;;7324012;19;9179;-68
2024/01/28 13:14:45;;;;;;;;;;;18.80;57.60;;;;;;7323525;19;9455;-68
2024/01/28 13:17:17;;;;;;;;;;;18.80;57.60;;;;;;7322185;19;8944;-69
2024/01/28 13:19:50;;;;;;;;;;;18.70;57.50;;;;;;7323558;19;9213;-68
2024/01/28 13:22:19;;;;;;;;;;;18.80;57.60;;;;;;7324244;19;9308;-69
2024/01/28 13:24:52;;;;;;;;;;;18.80;57.60;;;;;;7323484;19;9242;-69
2024/01/28 13:27:21;;;;;;;;;;;18.80;57.60;;;;;;7324130;19;9063;-68
2024/01/28 13:29:51;;;;;;;;;;;18.80;57.60;;;;;;7323635;19;9419;-69
2024/01/28 13:32:24;;;;;;;;;;;18.80;57.60;;;;;;7323512;19;9287;-68
2024/01/28 13:34:53;;;;;;;;;;;18.80;57.60;;;;;;7322914;19;9257;-69
2024/01/28 13:37:22;;;;;;;;;;;18.80;57.60;;;;;;7323761;19;9139;-69
2024/01/28 13:39:51;;;;;;;;;;;18.80;57.70;;;;;;7322864;19;8944;-68
2024/01/28 13:42:20;;;;;;;;;;;18.80;57.70;;;;;;7324439;19;10004;-68
2024/01/28 13:44:50;;;;;;;;;;;18.70;57.70;;;;;;7322417;19;9206;-68
2024/01/28 13:47:22;;;;;;;;;;;18.80;57.70;;;;;;7323334;19;9179;-69
2024/01/28 13:49:52;;;;;;;;;;;18.70;57.70;;;;;;7323277;19;9321;-68
2024/01/28 13:52:21;;;;;;;;;;;18.70;57.70;;;;;;7322206;19;9229;-69
2024/01/28 13:54:52;;;;;;;;;;;18.70;57.70;;;;;;7322220;19;9279;-68
2024/01/28 13:57:22;;;;;;;;;;;18.80;57.80;;;;;;7325041;19;9229;-69
2024/01/28 13:59:51;;;;;;;;;;;18.70;57.70;;;;;;7330018;19;10014;-69
2024/01/28 14:02:24;;;;;;;;;;;18.70;57.70;;;;;;7329984;19;9234;-68
2024/01/28 14:04:54;;;;;;;;;;;18.70;57.70;;;;;;7330952;19;9517;-67
2024/01/28 14:07:23;;;;;;;;;;;18.70;57.70;;;;;;7332082;19;9245;-69
2024/01/28 14:09:53;;;;;;;;;;;18.70;57.70;;;;;;7328792;19;9024;-69
2024/01/28 14:12:23;;;;;;;;;;;18.80;57.70;;;;;;7329790;19;9968;-69
2024/01/28 14:14:53;;;;;;;;;;;18.70;57.70;;;;;;7328661;19;9239;-68
2024/01/28 14:17:25;;;;;;;;;;;18.80;57.70;;;;;;7328895;19;9206;-69
2024/01/28 14:19:55;;;;;;;;;;;18.80;57.70;;;;;;7326949;19;9451;-69
2024/01/28 14:22:27;;;;;;;;;;;18.80;57.70;;;;;;7328720;19;10086;-69
2024/01/28 14:24:57;;;;;;;;;;;18.80;57.70;;;;;;7328343;19;8959;-68
2024/01/28 14:27:26;;;;;;;;;;;18.80;57.70;;;;;;7328494;19;9237;-68
2024/01/28 14:29:56;;;;;;;;;;;18.80;57.70;;;;;;7327583;19;9233;-69
2024/01/28 14:32:29;;;;;;;;;;;18.90;57.70;;;;;;7328295;19;9165;-69
2024/01/28 14:34:59;;;;;;;;;;;18.90;57.80;;;;;;7328345;19;9142;-68
2024/01/28 14:37:29;;;;;;;;;;;18.90;57.70;;;;;;7328537;19;9198;-68
2024/01/28 14:39:59;;;;;;;;;;;18.90;57.70;;;;;;7328206;19;9221;-69
2024/01/28 14:42:28;;;;;;;;;;;18.90;57.70;;;;;;7328261;19;9236;-69
2024/01/28 14:44:58;;;;;;;;;;;18.90;57.70;;;;;;7328133;19;9249;-69
2024/01/28 14:47:30;;;;;;;;;;;18.90;57.70;;;;;;7327832;19;9205;-69